createdAt,value
2023-03-27T07:27:00.559Z,2.6
2023-03-27T07:46:32.986Z,3
2023-03-27T08:06:01.297Z,2.7
2023-03-27T08:25:24.861Z,1.8
2023-03-27T08:45:00.129Z,1.6
2023-03-27T09:04:19.692Z,0.1
2023-03-27T09:23:44.412Z,0.5
2023-03-27T09:43:15.569Z,1
2023-03-27T10:02:38.788Z,1.8
2023-03-27T10:21:54.950Z,2.7
2023-03-27T11:00:52.378Z,2.2
2023-03-27T11:20:20.400Z,2.3
2023-03-27T11:39:37.382Z,2.8
2023-03-27T11:59:06.222Z,4.3
2023-03-27T12:18:41.323Z,3.9
2023-03-27T12:37:57.973Z,3
2023-03-27T12:57:19.626Z,3.2
2023-03-27T13:16:42.413Z,4.5
2023-03-27T13:36:08.369Z,2.9
2023-03-27T13:55:23.402Z,4.2
2023-03-27T14:14:49.290Z,3.8
2023-03-27T14:34:16.764Z,3.4
2023-03-27T14:53:34.846Z,2.7
2023-03-27T15:12:58.369Z,2.7
2023-03-27T15:32:22.913Z,1.9
2023-03-27T15:51:47.136Z,1.8
2023-03-27T16:11:11.300Z,0.9
2023-03-27T16:30:35.022Z,1.1
2023-03-27T16:50:12.389Z,0.5
2023-03-27T17:09:25.449Z,0.8
2023-03-27T17:28:46.312Z,0
2023-03-27T17:48:09.167Z,0.8
2023-03-27T18:07:31.313Z,0.9
2023-03-27T18:26:54.226Z,0.9
2023-03-27T18:46:14.831Z,0
2023-03-27T19:05:36.546Z,-0.2
2023-03-27T19:24:58.677Z,0.2
2023-03-27T19:44:20.227Z,0.5
2023-03-27T20:03:43.691Z,0.8
2023-03-27T20:23:06.717Z,0.9
2023-03-27T20:42:28.405Z,1.2
2023-03-27T21:01:50.134Z,1.2
2023-03-27T21:21:12.853Z,0.9
2023-03-27T21:40:35.864Z,0.9
2023-03-27T21:59:58.897Z,1
2023-03-27T22:19:22.912Z,1.1
2023-03-27T22:38:44.873Z,1.1
2023-03-27T22:58:08.482Z,1.2
2023-03-27T23:17:31.890Z,1.1
2023-03-27T23:36:55.144Z,1.1
2023-03-27T23:56:18.526Z,1.1
